Houston's Hourly Summary for Sunday, March 19, 2017
Hour Temp
(f)
RH
(%)
Solar Rad.
(MJ/m2)
Rainfall
(in)
Wind
(mph)
3/19/2017 12:00 AM 68 99 0 0 0.14
3/19/2017 1:00 AM 67 99 0 0 0.03
3/19/2017 2:00 AM 66 99 0 0 0.19
3/19/2017 3:00 AM 66 99 0 0 0.08
3/19/2017 4:00 AM 65 99 0 0 0
3/19/2017 5:00 AM 63 99 0 0 0
3/19/2017 6:00 AM 61 99 0 0 0
3/19/2017 7:00 AM 61 99 0 0 0
3/19/2017 8:00 AM 61 99 0.04 0 0
3/19/2017 9:00 AM 63 99 0.37 0 0.01
3/19/2017 10:00 AM 68 87 1.12 0 0.92
3/19/2017 11:00 AM 73 70 1.97 0 3.24
3/19/2017 12:00 PM 76 60 2.59 0 2.38
3/19/2017 1:00 PM 78 49 2.82 0 2.31
3/19/2017 2:00 PM 80 47 3.24 0 3.48
3/19/2017 3:00 PM 80 44 2.22 0 3.77
3/19/2017 4:00 PM 81 43 1.99 0 4.11
3/19/2017 5:00 PM 79 56 1.61 0 6.03
3/19/2017 6:00 PM 78 62 1.27 0 6.97
3/19/2017 7:00 PM 76 69 0.38 0 6.74
3/19/2017 8:00 PM 73 73 0.05 0 5.99
3/19/2017 9:00 PM 71 83 0 0 4.71
3/19/2017 10:00 PM 69 95 0 0 3.96
3/19/2017 11:00 PM 68 99 0 0 3.37
Data Summary 70 80 19.67 0.00 2.43